sensor_id;sensor_type;location;lat;lon;timestamp;temperature;humidity
22996;DHT22;11664;49.774;8.650;2023-02-28T00:01:19;-1.40;99.90
22996;DHT22;11664;49.774;8.650;2023-02-28T00:03:51;-1.50;99.90
22996;DHT22;11664;49.774;8.650;2023-02-28T00:06:32;-1.50;99.90
22996;DHT22;11664;49.774;8.650;2023-02-28T00:12:26;-1.60;99.90
22996;DHT22;11664;49.774;8.650;2023-02-28T00:14:55;-1.60;99.90
22996;DHT22;11664;49.774;8.650;2023-02-28T00:17:20;-1.70;99.90
22996;DHT22;11664;49.774;8.650;2023-02-28T00:19:53;-1.70;99.90
22996;DHT22;11664;49.774;8.650;2023-02-28T00:22:20;-1.70;99.90
22996;DHT22;11664;49.774;8.650;2023-02-28T00:24:49;-1.70;99.90
22996;DHT22;11664;49.774;8.650;2023-02-28T00:27:17;-1.70;99.90
22996;DHT22;11664;49.774;8.650;2023-02-28T00:29:43;-1.70;99.90
22996;DHT22;11664;49.774;8.650;2023-02-28T00:32:21;-1.70;99.90
22996;DHT22;11664;49.774;8.650;2023-02-28T00:35:05;-1.70;99.90
22996;DHT22;11664;49.774;8.650;2023-02-28T00:37:31;-1.70;99.90
22996;DHT22;11664;49.774;8.650;2023-02-28T00:39:59;-1.60;99.90
22996;DHT22;11664;49.774;8.650;2023-02-28T00:42:28;-1.60;99.90
22996;DHT22;11664;49.774;8.650;2023-02-28T00:44:56;-1.50;99.90
22996;DHT22;11664;49.774;8.650;2023-02-28T00:47:25;-1.40;99.90
22996;DHT22;11664;49.774;8.650;2023-02-28T00:49:57;-1.40;99.90
22996;DHT22;11664;49.774;8.650;2023-02-28T00:52:22;-1.30;99.90
22996;DHT22;11664;49.774;8.650;2023-02-28T00:54:48;-1.40;99.90
22996;DHT22;11664;49.774;8.650;2023-02-28T00:57:31;-1.50;99.90
22996;DHT22;11664;49.774;8.650;2023-02-28T00:59:56;-1.60;99.90
22996;DHT22;11664;49.774;8.650;2023-02-28T01:02:23;-1.60;99.90
22996;DHT22;11664;49.774;8.650;2023-02-28T01:04:57;-1.70;99.90
22996;DHT22;11664;49.774;8.650;2023-02-28T01:07:23;-1.70;99.90
22996;DHT22;11664;49.774;8.650;2023-02-28T01:09:49;-1.70;99.90
22996;DHT22;11664;49.774;8.650;2023-02-28T01:12:15;-1.70;99.90
22996;DHT22;11664;49.774;8.650;2023-02-28T01:14:40;-1.70;99.90
22996;DHT22;11664;49.774;8.650;2023-02-28T01:17:06;-1.80;99.90
22996;DHT22;11664;49.774;8.650;2023-02-28T01:19:32;-1.90;99.90
22996;DHT22;11664;49.774;8.650;2023-02-28T01:22:05;-1.90;99.90
22996;DHT22;11664;49.774;8.650;2023-02-28T01:24:32;-1.90;99.90
22996;DHT22;11664;49.774;8.650;2023-02-28T01:27:04;-1.90;99.90
22996;DHT22;11664;49.774;8.650;2023-02-28T01:29:29;-1.90;99.90
22996;DHT22;11664;49.774;8.650;2023-02-28T01:31:55;-1.80;99.90
22996;DHT22;11664;49.774;8.650;2023-02-28T01:34:26;-1.90;99.90
22996;DHT22;11664;49.774;8.650;2023-02-28T01:36:58;-1.80;99.90
22996;DHT22;11664;49.774;8.650;2023-02-28T01:39:24;-1.70;99.90
22996;DHT22;11664;49.774;8.650;2023-02-28T01:41:53;-1.80;99.90
22996;DHT22;11664;49.774;8.650;2023-02-28T01:47:32;-1.90;99.90
22996;DHT22;11664;49.774;8.650;2023-02-28T01:49:59;-1.80;99.90
22996;DHT22;11664;49.774;8.650;2023-02-28T01:52:26;-1.80;99.90
22996;DHT22;11664;49.774;8.650;2023-02-28T01:54:59;-1.80;99.90
22996;DHT22;11664;49.774;8.650;2023-02-28T01:57:49;-1.80;99.90
22996;DHT22;11664;49.774;8.650;2023-02-28T02:00:25;-1.90;99.90
22996;DHT22;11664;49.774;8.650;2023-02-28T02:06:35;-1.90;99.90
22996;DHT22;11664;49.774;8.650;2023-02-28T02:09:01;-2.10;99.90
22996;DHT22;11664;49.774;8.650;2023-02-28T02:11:34;-2.10;99.90
22996;DHT22;11664;49.774;8.650;2023-02-28T02:14:27;-2.10;99.90
22996;DHT22;11664;49.774;8.650;2023-02-28T02:17:27;-1.90;99.90
22996;DHT22;11664;49.774;8.650;2023-02-28T02:29:37;-2.10;99.90
22996;DHT22;11664;49.774;8.650;2023-02-28T02:35:26;-2.20;99.90
22996;DHT22;11664;49.774;8.650;2023-02-28T02:49:38;-2.10;99.90
22996;DHT22;11664;49.774;8.650;2023-02-28T02:52:10;-2.10;99.90
22996;DHT22;11664;49.774;8.650;2023-02-28T02:54:45;-2.10;99.90
22996;DHT22;11664;49.774;8.650;2023-02-28T02:57:24;-2.10;99.90
22996;DHT22;11664;49.774;8.650;2023-02-28T02:59:52;-2.10;99.90
22996;DHT22;11664;49.774;8.650;2023-02-28T03:02:23;-2.10;99.90
22996;DHT22;11664;49.774;8.650;2023-02-28T03:05:07;-2.10;99.90
22996;DHT22;11664;49.774;8.650;2023-02-28T03:07:55;-2.00;99.90
22996;DHT22;11664;49.774;8.650;2023-02-28T03:10:42;-2.10;99.90
22996;DHT22;11664;49.774;8.650;2023-02-28T03:28:03;-2.40;99.90
22996;DHT22;11664;49.774;8.650;2023-02-28T03:33:59;-2.40;99.90
22996;DHT22;11664;49.774;8.650;2023-02-28T03:36:35;-2.40;99.90
22996;DHT22;11664;49.774;8.650;2023-02-28T03:39:19;-2.40;99.90
22996;DHT22;11664;49.774;8.650;2023-02-28T03:41:58;-2.50;99.90
22996;DHT22;11664;49.774;8.650;2023-02-28T03:44:30;-2.50;99.90
22996;DHT22;11664;49.774;8.650;2023-02-28T03:47:04;-2.50;99.90
22996;DHT22;11664;49.774;8.650;2023-02-28T03:52:56;-2.50;99.90
22996;DHT22;11664;49.774;8.650;2023-02-28T03:55:28;-2.50;99.90
22996;DHT22;11664;49.774;8.650;2023-02-28T03:58:04;-2.50;99.90
22996;DHT22;11664;49.774;8.650;2023-02-28T04:00:56;-2.50;99.90
22996;DHT22;11664;49.774;8.650;2023-02-28T04:03:41;-2.60;99.90
22996;DHT22;11664;49.774;8.650;2023-02-28T04:06:16;-2.60;99.90
22996;DHT22;11664;49.774;8.650;2023-02-28T04:08:52;-2.60;99.90
22996;DHT22;11664;49.774;8.650;2023-02-28T04:11:27;-2.60;99.90
22996;DHT22;11664;49.774;8.650;2023-02-28T04:13:57;-2.70;99.90
22996;DHT22;11664;49.774;8.650;2023-02-28T04:16:30;-2.60;99.90
22996;DHT22;11664;49.774;8.650;2023-02-28T04:19:23;-2.70;99.90
22996;DHT22;11664;49.774;8.650;2023-02-28T04:21:51;-2.60;99.90
22996;DHT22;11664;49.774;8.650;2023-02-28T04:24:29;-2.60;99.90
22996;DHT22;11664;49.774;8.650;2023-02-28T04:26:56;-2.60;99.90
22996;DHT22;11664;49.774;8.650;2023-02-28T04:29:25;-2.60;99.90
22996;DHT22;11664;49.774;8.650;2023-02-28T04:32:04;-2.60;99.90
22996;DHT22;11664;49.774;8.650;2023-02-28T04:34:32;-2.60;99.90
22996;DHT22;11664;49.774;8.650;2023-02-28T04:37:05;-2.60;99.90
22996;DHT22;11664;49.774;8.650;2023-02-28T04:39:34;-2.60;99.90
22996;DHT22;11664;49.774;8.650;2023-02-28T04:42:10;-2.50;99.90
22996;DHT22;11664;49.774;8.650;2023-02-28T04:44:42;-2.60;99.90
22996;DHT22;11664;49.774;8.650;2023-02-28T04:47:25;-2.60;99.90
22996;DHT22;11664;49.774;8.650;2023-02-28T04:49:51;-2.60;99.90
22996;DHT22;11664;49.774;8.650;2023-02-28T04:52:16;-2.60;99.90
22996;DHT22;11664;49.774;8.650;2023-02-28T04:54:42;-2.60;99.90
22996;DHT22;11664;49.774;8.650;2023-02-28T04:57:08;-2.60;99.90
22996;DHT22;11664;49.774;8.650;2023-02-28T04:59:33;-2.70;99.90
22996;DHT22;11664;49.774;8.650;2023-02-28T05:02:02;-2.70;99.90
22996;DHT22;11664;49.774;8.650;2023-02-28T05:04:37;-2.70;99.90
22996;DHT22;11664;49.774;8.650;2023-02-28T05:07:03;-2.80;99.90
22996;DHT22;11664;49.774;8.650;2023-02-28T05:09:35;-2.80;99.90
22996;DHT22;11664;49.774;8.650;2023-02-28T05:12:16;-2.70;99.90
22996;DHT22;11664;49.774;8.650;2023-02-28T05:14:41;-2.70;99.90
22996;DHT22;11664;49.774;8.650;2023-02-28T05:17:08;-2.70;99.90
22996;DHT22;11664;49.774;8.650;2023-02-28T05:19:40;-2.70;99.90
22996;DHT22;11664;49.774;8.650;2023-02-28T05:22:14;-2.70;99.90
22996;DHT22;11664;49.774;8.650;2023-02-28T05:24:42;-2.80;99.90
22996;DHT22;11664;49.774;8.650;2023-02-28T05:27:07;-2.70;99.90
22996;DHT22;11664;49.774;8.650;2023-02-28T05:29:36;-2.70;99.90
22996;DHT22;11664;49.774;8.650;2023-02-28T05:32:16;-2.70;99.90
22996;DHT22;11664;49.774;8.650;2023-02-28T05:34:41;-2.70;99.90
22996;DHT22;11664;49.774;8.650;2023-02-28T05:37:14;-2.80;99.90
22996;DHT22;11664;49.774;8.650;2023-02-28T05:39:43;-2.80;99.90
22996;DHT22;11664;49.774;8.650;2023-02-28T05:42:18;-2.80;99.90
22996;DHT22;11664;49.774;8.650;2023-02-28T05:44:51;-2.90;99.90
22996;DHT22;11664;49.774;8.650;2023-02-28T05:47:23;-2.90;99.90
22996;DHT22;11664;49.774;8.650;2023-02-28T05:49:51;-2.90;99.90
22996;DHT22;11664;49.774;8.650;2023-02-28T05:52:17;-2.80;99.90
22996;DHT22;11664;49.774;8.650;2023-02-28T05:54:43;-2.80;99.90
22996;DHT22;11664;49.774;8.650;2023-02-28T05:57:08;-2.80;99.90
22996;DHT22;11664;49.774;8.650;2023-02-28T05:59:34;-2.80;99.90
22996;DHT22;11664;49.774;8.650;2023-02-28T06:02:02;-2.90;99.90
22996;DHT22;11664;49.774;8.650;2023-02-28T06:04:31;-2.80;99.90
22996;DHT22;11664;49.774;8.650;2023-02-28T06:06:57;-2.90;99.90
22996;DHT22;11664;49.774;8.650;2023-02-28T06:09:29;-2.90;99.90
22996;DHT22;11664;49.774;8.650;2023-02-28T06:11:59;-2.80;99.90
22996;DHT22;11664;49.774;8.650;2023-02-28T06:14:31;-2.80;99.90
22996;DHT22;11664;49.774;8.650;2023-02-28T06:17:03;-2.80;99.90
22996;DHT22;11664;49.774;8.650;2023-02-28T06:19:36;-2.70;99.90
22996;DHT22;11664;49.774;8.650;2023-02-28T06:22:10;-2.70;99.90
22996;DHT22;11664;49.774;8.650;2023-02-28T06:24:41;-2.60;99.90
22996;DHT22;11664;49.774;8.650;2023-02-28T06:27:10;-2.60;99.90
22996;DHT22;11664;49.774;8.650;2023-02-28T06:29:38;-2.50;99.90
22996;DHT22;11664;49.774;8.650;2023-02-28T06:32:07;-2.50;99.90
22996;DHT22;11664;49.774;8.650;2023-02-28T06:34:33;-2.50;99.90
22996;DHT22;11664;49.774;8.650;2023-02-28T06:37:04;-2.50;99.90
22996;DHT22;11664;49.774;8.650;2023-02-28T06:39:30;-2.50;99.90
22996;DHT22;11664;49.774;8.650;2023-02-28T06:42:02;-2.50;99.90
22996;DHT22;11664;49.774;8.650;2023-02-28T06:44:31;-2.50;99.90
22996;DHT22;11664;49.774;8.650;2023-02-28T06:47:05;-2.50;99.90
22996;DHT22;11664;49.774;8.650;2023-02-28T06:49:33;-2.40;99.90
22996;DHT22;11664;49.774;8.650;2023-02-28T06:51:58;-2.40;99.90
22996;DHT22;11664;49.774;8.650;2023-02-28T06:54:27;-2.30;99.90
22996;DHT22;11664;49.774;8.650;2023-02-28T06:56:52;-2.20;99.90
22996;DHT22;11664;49.774;8.650;2023-02-28T06:59:22;-2.20;99.90
22996;DHT22;11664;49.774;8.650;2023-02-28T07:01:51;-2.10;99.90
22996;DHT22;11664;49.774;8.650;2023-02-28T07:04:20;-2.10;99.90
22996;DHT22;11664;49.774;8.650;2023-02-28T07:06:55;-2.00;99.90
22996;DHT22;11664;49.774;8.650;2023-02-28T07:09:22;-1.90;99.90
22996;DHT22;11664;49.774;8.650;2023-02-28T07:11:54;-1.90;99.90
22996;DHT22;11664;49.774;8.650;2023-02-28T07:14:26;-1.80;99.90
22996;DHT22;11664;49.774;8.650;2023-02-28T07:16:54;-1.80;99.90
22996;DHT22;11664;49.774;8.650;2023-02-28T07:19:20;-1.70;99.90
22996;DHT22;11664;49.774;8.650;2023-02-28T07:21:45;-1.50;99.90
22996;DHT22;11664;49.774;8.650;2023-02-28T07:24:11;-1.50;99.90
22996;DHT22;11664;49.774;8.650;2023-02-28T07:26:36;-1.50;99.90
22996;DHT22;11664;49.774;8.650;2023-02-28T07:29:05;-1.40;99.90
22996;DHT22;11664;49.774;8.650;2023-02-28T07:31:31;-1.20;99.90
22996;DHT22;11664;49.774;8.650;2023-02-28T07:34:08;-1.10;99.90
22996;DHT22;11664;49.774;8.650;2023-02-28T07:40:30;-0.80;99.90
22996;DHT22;11664;49.774;8.650;2023-02-28T07:43:14;-0.50;99.90
22996;DHT22;11664;49.774;8.650;2023-02-28T07:46:00;-0.40;99.90
22996;DHT22;11664;49.774;8.650;2023-02-28T07:48:29;-0.30;99.90
22996;DHT22;11664;49.774;8.650;2023-02-28T07:50:58;-0.20;99.90
22996;DHT22;11664;49.774;8.650;2023-02-28T07:53:31;-0.10;99.90
22996;DHT22;11664;49.774;8.650;2023-02-28T07:56:00;0.00;99.90
22996;DHT22;11664;49.774;8.650;2023-02-28T07:58:27;0.10;99.90
22996;DHT22;11664;49.774;8.650;2023-02-28T08:00:53;0.30;99.90
22996;DHT22;11664;49.774;8.650;2023-02-28T08:03:25;0.40;99.90
22996;DHT22;11664;49.774;8.650;2023-02-28T08:05:51;0.50;99.90
22996;DHT22;11664;49.774;8.650;2023-02-28T08:08:17;0.60;99.90
22996;DHT22;11664;49.774;8.650;2023-02-28T08:10:43;0.70;99.90
22996;DHT22;11664;49.774;8.650;2023-02-28T08:13:09;0.70;99.90
22996;DHT22;11664;49.774;8.650;2023-02-28T08:15:35;0.90;99.90
22996;DHT22;11664;49.774;8.650;2023-02-28T08:18:04;0.90;99.90
22996;DHT22;11664;49.774;8.650;2023-02-28T08:20:30;1.00;99.90
22996;DHT22;11664;49.774;8.650;2023-02-28T08:22:56;1.10;99.90
22996;DHT22;11664;49.774;8.650;2023-02-28T08:25:21;1.10;99.90
22996;DHT22;11664;49.774;8.650;2023-02-28T08:27:56;1.10;99.90
22996;DHT22;11664;49.774;8.650;2023-02-28T08:30:21;1.10;99.90
22996;DHT22;11664;49.774;8.650;2023-02-28T08:32:47;1.10;99.90
22996;DHT22;11664;49.774;8.650;2023-02-28T08:35:28;1.10;99.90
22996;DHT22;11664;49.774;8.650;2023-02-28T08:37:57;1.10;99.90
22996;DHT22;11664;49.774;8.650;2023-02-28T08:40:26;1.20;99.90
22996;DHT22;11664;49.774;8.650;2023-02-28T08:42:51;1.20;99.90
22996;DHT22;11664;49.774;8.650;2023-02-28T08:45:25;1.30;99.90
22996;DHT22;11664;49.774;8.650;2023-02-28T08:51:16;1.40;99.90
22996;DHT22;11664;49.774;8.650;2023-02-28T08:53:44;1.50;99.90
22996;DHT22;11664;49.774;8.650;2023-02-28T08:56:12;1.60;99.90
22996;DHT22;11664;49.774;8.650;2023-02-28T08:58:39;1.60;99.90
22996;DHT22;11664;49.774;8.650;2023-02-28T09:01:33;1.60;99.90
22996;DHT22;11664;49.774;8.650;2023-02-28T09:04:02;1.50;99.90
22996;DHT22;11664;49.774;8.650;2023-02-28T09:06:37;1.50;99.90
22996;DHT22;11664;49.774;8.650;2023-02-28T09:09:02;1.60;99.90
22996;DHT22;11664;49.774;8.650;2023-02-28T09:11:31;1.60;99.90
22996;DHT22;11664;49.774;8.650;2023-02-28T09:13:58;1.80;99.90
22996;DHT22;11664;49.774;8.650;2023-02-28T09:16:25;1.80;99.90
22996;DHT22;11664;49.774;8.650;2023-02-28T09:18:51;1.90;99.90
22996;DHT22;11664;49.774;8.650;2023-02-28T09:21:18;1.90;99.90
22996;DHT22;11664;49.774;8.650;2023-02-28T09:23:49;1.90;99.90
22996;DHT22;11664;49.774;8.650;2023-02-28T09:26:21;2.00;99.90
22996;DHT22;11664;49.774;8.650;2023-02-28T09:28:47;2.10;99.90
22996;DHT22;11664;49.774;8.650;2023-02-28T09:31:22;2.20;99.90
22996;DHT22;11664;49.774;8.650;2023-02-28T09:33:52;2.30;99.90
22996;DHT22;11664;49.774;8.650;2023-02-28T09:36:23;2.40;99.90
22996;DHT22;11664;49.774;8.650;2023-02-28T09:38:49;2.50;99.90
22996;DHT22;11664;49.774;8.650;2023-02-28T09:41:22;2.70;99.90
22996;DHT22;11664;49.774;8.650;2023-02-28T09:43:56;2.70;99.90
22996;DHT22;11664;49.774;8.650;2023-02-28T09:46:39;2.70;99.90
22996;DHT22;11664;49.774;8.650;2023-02-28T09:49:28;2.80;99.90
22996;DHT22;11664;49.774;8.650;2023-02-28T09:52:07;2.90;99.90
22996;DHT22;11664;49.774;8.650;2023-02-28T09:54:40;3.10;99.90
22996;DHT22;11664;49.774;8.650;2023-02-28T10:06:26;3.50;99.90
22996;DHT22;11664;49.774;8.650;2023-02-28T10:11:33;3.70;99.90
22996;DHT22;11664;49.774;8.650;2023-02-28T10:14:16;3.70;99.90
22996;DHT22;11664;49.774;8.650;2023-02-28T10:17:01;3.80;99.90
22996;DHT22;11664;49.774;8.650;2023-02-28T10:25:53;4.40;99.90
22996;DHT22;11664;49.774;8.650;2023-02-28T10:28:19;4.50;99.90
22996;DHT22;11664;49.774;8.650;2023-02-28T10:30:51;4.80;99.40
22996;DHT22;11664;49.774;8.650;2023-02-28T10:35:52;4.90;97.80
22996;DHT22;11664;49.774;8.650;2023-02-28T10:38:33;4.90;97.70
22996;DHT22;11664;49.774;8.650;2023-02-28T10:43:32;5.00;97.00
22996;DHT22;11664;49.774;8.650;2023-02-28T10:46:18;4.80;95.80
22996;DHT22;11664;49.774;8.650;2023-02-28T10:51:46;5.00;96.30
22996;DHT22;11664;49.774;8.650;2023-02-28T10:54:31;5.00;95.60
22996;DHT22;11664;49.774;8.650;2023-02-28T10:57:20;4.80;95.90
22996;DHT22;11664;49.774;8.650;2023-02-28T11:00:13;5.20;96.10
22996;DHT22;11664;49.774;8.650;2023-02-28T11:02:48;5.50;95.50
22996;DHT22;11664;49.774;8.650;2023-02-28T11:10:46;5.70;95.40
22996;DHT22;11664;49.774;8.650;2023-02-28T11:13:29;5.70;94.30
22996;DHT22;11664;49.774;8.650;2023-02-28T11:15:58;5.90;94.60
22996;DHT22;11664;49.774;8.650;2023-02-28T11:18:41;6.10;93.40
22996;DHT22;11664;49.774;8.650;2023-02-28T11:21:08;5.90;93.50
22996;DHT22;11664;49.774;8.650;2023-02-28T11:23:49;5.80;94.80
22996;DHT22;11664;49.774;8.650;2023-02-28T11:29:32;6.20;94.00
22996;DHT22;11664;49.774;8.650;2023-02-28T11:32:26;6.40;94.40
22996;DHT22;11664;49.774;8.650;2023-02-28T11:38:01;6.70;93.40
22996;DHT22;11664;49.774;8.650;2023-02-28T12:03:03;6.30;90.90
22996;DHT22;11664;49.774;8.650;2023-02-28T12:05:46;6.10;92.30
22996;DHT22;11664;49.774;8.650;2023-02-28T12:08:36;6.20;92.80
22996;DHT22;11664;49.774;8.650;2023-02-28T12:20:41;7.00;92.70
22996;DHT22;11664;49.774;8.650;2023-02-28T12:26:42;6.70;90.90
22996;DHT22;11664;49.774;8.650;2023-02-28T12:32:37;6.60;91.80
22996;DHT22;11664;49.774;8.650;2023-02-28T12:35:06;7.10;92.60
22996;DHT22;11664;49.774;8.650;2023-02-28T12:37:50;6.90;91.90
22996;DHT22;11664;49.774;8.650;2023-02-28T12:40:43;7.10;91.30
22996;DHT22;11664;49.774;8.650;2023-02-28T12:43:13;7.30;91.30
22996;DHT22;11664;49.774;8.650;2023-02-28T12:45:56;6.90;90.40
22996;DHT22;11664;49.774;8.650;2023-02-28T12:48:43;7.30;91.00
22996;DHT22;11664;49.774;8.650;2023-02-28T12:51:11;7.20;90.70
22996;DHT22;11664;49.774;8.650;2023-02-28T13:04:57;6.00;90.90
22996;DHT22;11664;49.774;8.650;2023-02-28T13:07:56;6.50;91.50
22996;DHT22;11664;49.774;8.650;2023-02-28T13:10:24;6.70;91.40
22996;DHT22;11664;49.774;8.650;2023-02-28T13:12:53;6.70;90.50
22996;DHT22;11664;49.774;8.650;2023-02-28T13:15:29;6.60;90.30
22996;DHT22;11664;49.774;8.650;2023-02-28T13:18:04;6.60;91.30
22996;DHT22;11664;49.774;8.650;2023-02-28T13:20:34;6.70;90.90
22996;DHT22;11664;49.774;8.650;2023-02-28T13:23:40;6.60;90.90
22996;DHT22;11664;49.774;8.650;2023-02-28T13:31:28;7.20;90.00
22996;DHT22;11664;49.774;8.650;2023-02-28T13:34:15;7.10;89.40
22996;DHT22;11664;49.774;8.650;2023-02-28T13:36:50;7.40;90.40
22996;DHT22;11664;49.774;8.650;2023-02-28T13:42:31;8.00;90.40
22996;DHT22;11664;49.774;8.650;2023-02-28T13:50:26;8.30;86.40
22996;DHT22;11664;49.774;8.650;2023-02-28T13:55:48;8.30;85.30
22996;DHT22;11664;49.774;8.650;2023-02-28T13:58:46;8.30;85.70
22996;DHT22;11664;49.774;8.650;2023-02-28T14:06:51;8.10;85.30
22996;DHT22;11664;49.774;8.650;2023-02-28T14:09:40;8.30;85.70
22996;DHT22;11664;49.774;8.650;2023-02-28T14:18:42;8.30;83.70
22996;DHT22;11664;49.774;8.650;2023-02-28T14:42:28;9.90;78.60
22996;DHT22;11664;49.774;8.650;2023-02-28T14:45:04;9.90;78.50
22996;DHT22;11664;49.774;8.650;2023-02-28T14:47:34;9.80;78.50
22996;DHT22;11664;49.774;8.650;2023-02-28T14:50:04;9.80;78.90
22996;DHT22;11664;49.774;8.650;2023-02-28T14:52:36;9.60;77.10
22996;DHT22;11664;49.774;8.650;2023-02-28T14:55:20;9.30;78.30
22996;DHT22;11664;49.774;8.650;2023-02-28T14:57:54;8.40;80.00
22996;DHT22;11664;49.774;8.650;2023-02-28T15:02:52;8.80;82.70
22996;DHT22;11664;49.774;8.650;2023-02-28T15:05:42;8.80;80.80
22996;DHT22;11664;49.774;8.650;2023-02-28T15:08:31;8.60;80.90
22996;DHT22;11664;49.774;8.650;2023-02-28T15:14:01;8.40;81.10
22996;DHT22;11664;49.774;8.650;2023-02-28T15:19:31;8.80;80.20
22996;DHT22;11664;49.774;8.650;2023-02-28T15:22:15;9.00;79.60
22996;DHT22;11664;49.774;8.650;2023-02-28T15:25:00;9.20;80.10
22996;DHT22;11664;49.774;8.650;2023-02-28T15:27:31;9.20;79.90
22996;DHT22;11664;49.774;8.650;2023-02-28T15:30:21;9.40;79.60
22996;DHT22;11664;49.774;8.650;2023-02-28T15:35:37;9.30;78.20
22996;DHT22;11664;49.774;8.650;2023-02-28T15:38:37;9.30;78.30
22996;DHT22;11664;49.774;8.650;2023-02-28T15:41:35;9.00;78.80
22996;DHT22;11664;49.774;8.650;2023-02-28T15:52:42;9.60;77.40
22996;DHT22;11664;49.774;8.650;2023-02-28T15:55:20;9.20;77.90
22996;DHT22;11664;49.774;8.650;2023-02-28T15:57:53;9.10;78.00
22996;DHT22;11664;49.774;8.650;2023-02-28T16:00:22;9.20;78.20
22996;DHT22;11664;49.774;8.650;2023-02-28T16:02:47;8.80;78.40
22996;DHT22;11664;49.774;8.650;2023-02-28T16:05:20;8.90;79.20
22996;DHT22;11664;49.774;8.650;2023-02-28T16:08:26;8.60;80.90
22996;DHT22;11664;49.774;8.650;2023-02-28T16:10:48;8.50;80.80
22996;DHT22;11664;49.774;8.650;2023-02-28T16:15:52;9.20;78.40
22996;DHT22;11664;49.774;8.650;2023-02-28T16:18:20;9.10;79.30
22996;DHT22;11664;49.774;8.650;2023-02-28T16:20:55;8.50;78.90
22996;DHT22;11664;49.774;8.650;2023-02-28T16:23:21;8.40;80.70
22996;DHT22;11664;49.774;8.650;2023-02-28T16:25:52;8.20;80.20
22996;DHT22;11664;49.774;8.650;2023-02-28T16:28:27;7.50;82.50
22996;DHT22;11664;49.774;8.650;2023-02-28T16:31:00;7.40;82.80
22996;DHT22;11664;49.774;8.650;2023-02-28T16:33:28;7.00;84.30
22996;DHT22;11664;49.774;8.650;2023-02-28T16:36:00;6.60;85.50
22996;DHT22;11664;49.774;8.650;2023-02-28T16:38:26;6.20;87.20
22996;DHT22;11664;49.774;8.650;2023-02-28T16:41:16;6.00;88.00
22996;DHT22;11664;49.774;8.650;2023-02-28T16:43:51;5.90;89.60
22996;DHT22;11664;49.774;8.650;2023-02-28T16:46:18;5.70;90.00
22996;DHT22;11664;49.774;8.650;2023-02-28T16:48:45;5.60;90.10
22996;DHT22;11664;49.774;8.650;2023-02-28T16:51:16;5.40;90.40
22996;DHT22;11664;49.774;8.650;2023-02-28T16:53:45;5.30;91.10
22996;DHT22;11664;49.774;8.650;2023-02-28T16:56:30;5.20;91.50
22996;DHT22;11664;49.774;8.650;2023-02-28T16:59:00;5.10;91.90
22996;DHT22;11664;49.774;8.650;2023-02-28T17:01:29;5.00;92.00
22996;DHT22;11664;49.774;8.650;2023-02-28T17:03:57;4.80;92.20
22996;DHT22;11664;49.774;8.650;2023-02-28T17:06:32;4.70;92.80
22996;DHT22;11664;49.774;8.650;2023-02-28T17:08:58;4.70;92.60
22996;DHT22;11664;49.774;8.650;2023-02-28T17:11:30;4.60;92.90
22996;DHT22;11664;49.774;8.650;2023-02-28T17:13:56;4.50;93.50
22996;DHT22;11664;49.774;8.650;2023-02-28T17:16:30;4.40;93.80
22996;DHT22;11664;49.774;8.650;2023-02-28T17:19:02;4.30;94.10
22996;DHT22;11664;49.774;8.650;2023-02-28T17:21:28;4.20;94.20
22996;DHT22;11664;49.774;8.650;2023-02-28T17:23:54;4.10;94.70
22996;DHT22;11664;49.774;8.650;2023-02-28T17:26:24;4.00;95.30
22996;DHT22;11664;49.774;8.650;2023-02-28T17:28:51;3.90;96.30
22996;DHT22;11664;49.774;8.650;2023-02-28T17:31:17;3.70;97.70
22996;DHT22;11664;49.774;8.650;2023-02-28T17:33:49;3.60;98.70
22996;DHT22;11664;49.774;8.650;2023-02-28T17:36:32;3.50;98.30
22996;DHT22;11664;49.774;8.650;2023-02-28T17:38:59;3.40;99.60
22996;DHT22;11664;49.774;8.650;2023-02-28T17:41:34;3.20;99.90
22996;DHT22;11664;49.774;8.650;2023-02-28T17:44:11;3.10;99.90
22996;DHT22;11664;49.774;8.650;2023-02-28T17:46:43;3.10;99.90
22996;DHT22;11664;49.774;8.650;2023-02-28T17:49:13;2.90;99.90
22996;DHT22;11664;49.774;8.650;2023-02-28T17:51:39;2.90;99.90
22996;DHT22;11664;49.774;8.650;2023-02-28T17:54:35;2.70;99.90
22996;DHT22;11664;49.774;8.650;2023-02-28T17:57:04;2.70;99.90
22996;DHT22;11664;49.774;8.650;2023-02-28T17:59:33;2.60;99.90
22996;DHT22;11664;49.774;8.650;2023-02-28T18:02:02;2.50;99.90
22996;DHT22;11664;49.774;8.650;2023-02-28T18:04:35;2.40;99.90
22996;DHT22;11664;49.774;8.650;2023-02-28T18:07:00;2.30;99.90
22996;DHT22;11664;49.774;8.650;2023-02-28T18:09:29;2.20;99.90
22996;DHT22;11664;49.774;8.650;2023-02-28T18:11:58;2.20;99.90
22996;DHT22;11664;49.774;8.650;2023-02-28T18:14:26;2.10;99.90
22996;DHT22;11664;49.774;8.650;2023-02-28T18:16:58;2.10;99.90
22996;DHT22;11664;49.774;8.650;2023-02-28T18:19:24;2.10;99.90
22996;DHT22;11664;49.774;8.650;2023-02-28T18:21:58;2.00;99.90
22996;DHT22;11664;49.774;8.650;2023-02-28T18:24:28;1.90;99.90
22996;DHT22;11664;49.774;8.650;2023-02-28T18:27:05;1.90;99.90
22996;DHT22;11664;49.774;8.650;2023-02-28T18:29:31;1.80;99.90
22996;DHT22;11664;49.774;8.650;2023-02-28T18:31:58;1.80;99.90
22996;DHT22;11664;49.774;8.650;2023-02-28T18:34:24;1.80;99.90
22996;DHT22;11664;49.774;8.650;2023-02-28T18:36:51;1.70;99.90
22996;DHT22;11664;49.774;8.650;2023-02-28T18:39:31;1.70;99.90
22996;DHT22;11664;49.774;8.650;2023-02-28T18:42:01;1.60;99.90
22996;DHT22;11664;49.774;8.650;2023-02-28T18:44:36;1.60;99.90
22996;DHT22;11664;49.774;8.650;2023-02-28T18:47:02;1.60;99.90
22996;DHT22;11664;49.774;8.650;2023-02-28T18:49:53;1.50;99.90
22996;DHT22;11664;49.774;8.650;2023-02-28T18:52:18;1.50;99.90
22996;DHT22;11664;49.774;8.650;2023-02-28T18:54:50;1.40;99.90
22996;DHT22;11664;49.774;8.650;2023-02-28T18:57:19;1.40;99.90
22996;DHT22;11664;49.774;8.650;2023-02-28T18:59:44;1.30;99.90
22996;DHT22;11664;49.774;8.650;2023-02-28T19:02:29;1.30;99.90
22996;DHT22;11664;49.774;8.650;2023-02-28T19:04:57;1.20;99.90
22996;DHT22;11664;49.774;8.650;2023-02-28T19:07:26;1.10;99.90
22996;DHT22;11664;49.774;8.650;2023-02-28T19:09:52;1.10;99.90
22996;DHT22;11664;49.774;8.650;2023-02-28T19:12:20;1.00;99.90
22996;DHT22;11664;49.774;8.650;2023-02-28T19:14:48;1.10;99.90
22996;DHT22;11664;49.774;8.650;2023-02-28T19:17:20;1.10;99.90
22996;DHT22;11664;49.774;8.650;2023-02-28T19:19:49;1.00;99.90
22996;DHT22;11664;49.774;8.650;2023-02-28T19:22:21;1.10;99.90
22996;DHT22;11664;49.774;8.650;2023-02-28T19:24:50;1.00;99.90
22996;DHT22;11664;49.774;8.650;2023-02-28T19:27:29;1.00;99.90
22996;DHT22;11664;49.774;8.650;2023-02-28T19:29:54;1.00;99.90
22996;DHT22;11664;49.774;8.650;2023-02-28T19:32:29;1.00;99.90
22996;DHT22;11664;49.774;8.650;2023-02-28T19:34:55;1.00;99.90
22996;DHT22;11664;49.774;8.650;2023-02-28T19:37:23;1.00;99.90
22996;DHT22;11664;49.774;8.650;2023-02-28T19:39:52;1.00;99.90
22996;DHT22;11664;49.774;8.650;2023-02-28T19:42:21;0.90;99.90
22996;DHT22;11664;49.774;8.650;2023-02-28T19:44:50;0.80;99.90
22996;DHT22;11664;49.774;8.650;2023-02-28T19:47:15;0.80;99.90
22996;DHT22;11664;49.774;8.650;2023-02-28T19:49:47;0.70;99.90
22996;DHT22;11664;49.774;8.650;2023-02-28T19:52:16;0.60;99.90
22996;DHT22;11664;49.774;8.650;2023-02-28T19:54:48;0.60;99.90
22996;DHT22;11664;49.774;8.650;2023-02-28T19:57:13;0.50;99.90